Details From DAAG - Alger Houari Boumediene
To TNCM - St Maarten - Princess Juliana Intl
Flight Number -
Tags Generated
Created
Modified
Stats Distance 3,637 nm / 6,735 km
Max Altitude 0 ft / 0 m
Waypoints 5
Social Downloads 2
Likes 0
Share VATSIM

Download

Looking for another format? Having issues loading an existing format? Contact us
Advertisement - Login to hide

Notes

Generated

Route

DAAG GATAS AOG12 PJD TNCM

ID Type Via Altitude Latitude Longitude Leg Dist Tot Dist Heading (true) Name
O DAAG APT - 0 ft / 0 m 36.69213˚ 3.17083˚ - 0 nm - -
GATAS FIX - 0 ft / 0 m 36.69329˚ -1.88856˚ 243 nm 243 nm 272° / 269° -
AOG12 FIX - 0 ft / 0 m 36.54147˚ -6.55968˚ 225 nm 468 nm 269° / 266° -
PJD NDB - 0 ft / 0 m 18.03833˚ -63.11833˚ 3167 nm 3636 nm 265° / 237° ST MAARTEN NDB
O TNCM APT - 0 ft / 0 m 18.03937˚ -63.11961˚ 0 nm 3636 nm 310° / 310° -

Altitude Profile

Advertisement - Login to hide

Weather


0- 5 10 15 20 25 30 35+ Temperature / ° C

Clouds and Precipitation
Forecast for 2017-12-15 06:00 UTC. Updated an hour ago

Ground ~20,000 ft ~40,000 ft Winds

DAAG

Details ICAO DAAG (ALG)
Name Alger Houari Boumediene
Region Algeria
Timezone Africa/Algiers (UTC+1.0)
Stats Elevation 82 ft / 25 m (AMSL)
Location 36.697521° 3.213079°
Runways 2
Magnetic Variation 1.058° E

METAR

DAAG 150430Z VRB01KT 9999 FEW026 SCT083 07/05 Q1015

Decode

TAF

TAF DAAG 142300Z 1500/1524 VRB02KT CAVOK BECMG 1508/1511 26012KT PROB30 TEMPO 1507/1512 FEW023CB BECMG 1518/1521 VRB02KT BECMG 1521/1524 FEW023CB

Decode

Departure Runways

ID Width Length Bearing (true) Bearing (mag) Surface Threshold Offset Overrun Length
05 197 ft / 60 m 11,459 ft / 3,493 m 52.87° 51.81° Asphalt 0 ft / 0 m 0 ft / 0 m
09 148 ft / 45 m 11,442 ft / 3,487 m 91.75° 90.69° Asphalt 0 ft / 0 m 1,017 ft / 310 m
23 197 ft / 60 m 11,459 ft / 3,493 m 232.89° 231.83° Asphalt 0 ft / 0 m 0 ft / 0 m
27 148 ft / 45 m 11,442 ft / 3,487 m 271.78° 270.72° Asphalt 0 ft / 0 m 0 ft / 0 m

TNCM

Details ICAO TNCM (SXM)
Name St Maarten - Princess Juliana Intl
Region Caribbean Netherlands, Aruba, Curaçao, Sint Maarten
Timezone Unknown (UTC+0.0)
Stats Elevation 12 ft / 4 m (AMSL)
Location 18.040889° -63.108974°
Runways 1
Magnetic Variation 14.325° W

METAR

Not found

TAF

TAF TNCM 142320Z 1500/1524 07008KT P6SM SCT020 FM151200 06017KT P6SM VCSH FEW020 SCT040 FM152200 07012KT P6SM FEW022

Decode

Destination Runways

ID Width Length Bearing (true) Bearing (mag) Surface Threshold Offset Overrun Length
10 148 ft / 45 m 7,464 ft / 2,275 m 81.43° 95.76° Asphalt 0 ft / 0 m 151 ft / 46 m
28 148 ft / 45 m 7,464 ft / 2,275 m 261.44° 275.77° Asphalt 397 ft / 121 m 0 ft / 0 m